createdAt,value
2023-03-29T00:09:45.265Z,-2.45
2023-03-29T00:25:03.480Z,-2.50
2023-03-29T00:40:10.145Z,-2.62
2023-03-29T00:55:35.831Z,-2.73
2023-03-29T01:10:43.091Z,-2.70
2023-03-29T01:26:04.467Z,-2.20
2023-03-29T01:41:07.316Z,-2.10
2023-03-29T01:56:22.432Z,-2.33
2023-03-29T02:11:28.766Z,-2.57
2023-03-29T02:26:31.913Z,-2.71
2023-03-29T02:41:37.533Z,-2.86
2023-03-29T02:56:57.622Z,-2.98
2023-03-29T03:12:00.527Z,-3.10
2023-03-29T03:27:03.169Z,-3.12
2023-03-29T03:42:08.412Z,-3.12
2023-03-29T03:57:25.980Z,-3.14
2023-03-29T04:12:28.926Z,-3.19
2023-03-29T04:27:32.195Z,-3.22
2023-03-29T04:42:51.071Z,-3.02
2023-03-29T04:57:54.934Z,-2.39
2023-03-29T05:13:12.317Z,-2.04
2023-03-29T05:28:16.160Z,-1.91
2023-03-29T05:43:19.174Z,-1.69
2023-03-29T05:58:22.634Z,-1.21
2023-03-29T06:13:26.824Z,-0.82
2023-03-29T06:28:30.265Z,-0.39
2023-03-29T06:43:34.127Z,0.58
2023-03-29T06:58:51.356Z,1.23
2023-03-29T07:13:55.173Z,1.53
2023-03-29T07:28:58.424Z,1.85
2023-03-29T07:44:08.509Z,2.75
2023-03-29T07:59:11.359Z,3.61
2023-03-29T08:14:28.387Z,4.43
2023-03-29T08:29:31.235Z,5.21
2023-03-29T08:44:49.858Z,6.00
2023-03-29T09:00:17.393Z,6.73
2023-03-29T09:15:54.132Z,7.00
2023-03-29T09:31:20.953Z,7.09
2023-03-29T09:46:38.274Z,7.33
2023-03-29T10:02:11.464Z,7.56
2023-03-29T10:17:28.762Z,7.80
2023-03-29T10:32:35.753Z,8.23
2023-03-29T10:47:44.166Z,8.58
2023-03-29T11:02:58.601Z,8.93
2023-03-29T11:18:19.235Z,9.12
2023-03-29T11:34:13.863Z,9.19
2023-03-29T11:49:36.536Z,9.29
2023-03-29T12:04:51.414Z,9.51
2023-03-29T12:20:31.030Z,9.75
2023-03-29T12:35:58.560Z,9.92
2023-03-29T12:51:12.497Z,9.93
2023-03-29T13:06:46.082Z,10.46
2023-03-29T13:22:30.652Z,10.34
2023-03-29T13:37:46.758Z,10.52
2023-03-29T13:53:10.877Z,10.74
2023-03-29T14:08:26.548Z,10.96
2023-03-29T14:23:33.338Z,11.10
2023-03-29T14:38:37.503Z,10.90
2023-03-29T14:53:42.690Z,11.70
2023-03-29T15:09:01.456Z,11.32
2023-03-29T15:24:33.321Z,10.89
2023-03-29T15:39:43.891Z,10.47
2023-03-29T15:54:46.805Z,10.06
2023-03-29T16:09:50.415Z,9.78
2023-03-29T16:24:53.273Z,9.50
2023-03-29T16:39:56.649Z,9.28
2023-03-29T16:54:59.725Z,9.09
2023-03-29T17:10:05.414Z,8.96
2023-03-29T17:25:09.357Z,8.79
2023-03-29T17:40:26.861Z,8.62
2023-03-29T17:55:29.804Z,8.33
2023-03-29T18:10:32.924Z,7.99
2023-03-29T18:25:35.623Z,7.69
2023-03-29T18:40:38.754Z,7.49
2023-03-29T18:55:42.839Z,7.40
2023-03-29T19:10:45.906Z,7.19
2023-03-29T19:25:57.815Z,7.06
2023-03-29T19:41:15.524Z,6.90
2023-03-29T19:56:18.179Z,6.91
2023-03-29T20:11:23.297Z,6.97
2023-03-29T20:26:27.457Z,6.96
2023-03-29T20:41:31.232Z,6.94
2023-03-29T20:56:39.472Z,6.90
2023-03-29T21:11:43.098Z,6.89
2023-03-29T21:26:45.946Z,6.88
2023-03-29T21:41:48.508Z,6.85
2023-03-29T21:56:51.171Z,6.82
2023-03-29T22:11:53.750Z,6.80
2023-03-29T22:26:56.192Z,6.81
2023-03-29T22:41:58.818Z,6.85
2023-03-29T22:57:01.428Z,7.21
2023-03-29T23:12:04.228Z,7.16
2023-03-29T23:27:07.175Z,6.97
2023-03-29T23:42:10.260Z,6.79
2023-03-29T23:57:13.175Z,6.65
